Time;durP1;ratioP1;P1;durP2;ratioP2;P2;SDS_P1;SDS_P2;PMS_P1;PMS_P2;Temp;Humidity;BMP_temperature;BMP_pressure;BME280_temperature;BME280_humidity;BME280_pressure;Samples;Min_cycle;Max_cycle;Signal;HPM_P1;HPM_P2
2023/03/27 00:00:49;;;;;;;27.23;14.45;;;;;;;;;;4798072;29;20038;-81
2023/03/27 00:03:35;;;;;;;30.00;15.38;;;;;;;;;;4803929;29;20042;-81
2023/03/27 00:06:20;;;;;;;39.60;16.38;;;;;;;;;;4804800;29;20408;-80
2023/03/27 00:09:07;;;;;;;24.63;12.07;;;;;;;;;;4805113;29;20062;-81
2023/03/27 00:11:54;;;;;;;22.25;11.02;;;;;;;;;;4804354;29;20046;-83
2023/03/27 00:14:40;;;;;;;23.80;10.98;;;;;;;;;;4792345;29;20150;-81
2023/03/27 00:17:26;;;;;;;21.65;10.10;;;;;;;;;;4798075;29;20204;-82
2023/03/27 00:20:13;;;;;;;31.23;12.88;;;;;;;;;;4804862;29;20042;-80
2023/03/27 00:22:59;;;;;;;24.27;11.13;;;;;;;;;;4805080;29;20445;-82
2023/03/27 00:25:47;;;;;;;24.50;12.02;;;;;;;;;;4804271;29;20051;-82
2023/03/27 00:28:33;;;;;;;18.90;8.70;;;;;;;;;;4804917;29;20042;-82
2023/03/27 00:31:18;;;;;;;16.60;8.00;;;;;;;;;;4804589;29;20054;-81
2023/03/27 00:34:04;;;;;;;14.60;7.35;;;;;;;;;;4804197;29;20058;-81
2023/03/27 00:36:52;;;;;;;16.73;7.88;;;;;;;;;;4817522;29;20058;-82
2023/03/27 00:39:39;;;;;;;20.48;8.02;;;;;;;;;;4804596;29;20058;-82
2023/03/27 00:42:25;;;;;;;18.25;9.32;;;;;;;;;;4804242;29;20513;-82
2023/03/27 00:45:19;;;;;;;21.50;8.60;;;;;;;;;;4797587;29;20058;-80
2023/03/27 00:48:07;;;;;;;19.15;10.57;;;;;;;;;;4786630;29;20042;-82
2023/03/27 00:50:53;;;;;;;12.00;5.78;;;;;;;;;;4816347;29;20047;-82
2023/03/27 00:53:40;;;;;;;7.85;3.35;;;;;;;;;;4804005;29;20055;-82
2023/03/27 00:56:25;;;;;;;7.00;3.20;;;;;;;;;;4810913;29;20109;-84
2023/03/27 00:59:18;;;;;;;5.88;3.08;;;;;;;;;;4798024;29;20047;-83
2023/03/27 01:02:05;;;;;;;11.60;3.53;;;;;;;;;;4804524;29;20046;-82
2023/03/27 01:04:52;;;;;;;4.72;2.55;;;;;;;;;;4804480;29;20508;-81
2023/03/27 01:07:39;;;;;;;5.28;1.95;;;;;;;;;;4796971;29;20042;-82
2023/03/27 01:11:00;;;;;;;4.15;1.77;;;;;;;;;;4804707;29;20046;-82
2023/03/27 01:14:06;;;;;;;2.55;1.88;;;;;;;;;;4796858;29;20070;-83
2023/03/27 01:17:13;;;;;;;3.33;1.67;;;;;;;;;;4817145;29;20042;-83
2023/03/27 01:20:04;;;;;;;4.75;1.90;;;;;;;;;;4803953;29;20058;-81
2023/03/27 01:23:26;;;;;;;4.30;2.08;;;;;;;;;;4804336;29;20400;-82
2023/03/27 01:26:27;;;;;;;4.50;2.13;;;;;;;;;;4804437;29;20133;-83
2023/03/27 01:29:34;;;;;;;4.57;2.33;;;;;;;;;;4811751;29;20042;-83
2023/03/27 01:32:48;;;;;;;6.07;2.60;;;;;;;;;;4807198;29;20046;-80
2023/03/27 01:35:55;;;;;;;4.10;2.50;;;;;;;;;;4807129;29;20042;-82
2023/03/27 01:39:09;;;;;;;5.75;2.70;;;;;;;;;;4806770;29;20404;-83
2023/03/27 01:42:05;;;;;;;3.95;1.98;;;;;;;;;;4807149;29;20058;-82
2023/03/27 01:45:06;;;;;;;3.95;2.80;;;;;;;;;;4799949;29;20046;-81
2023/03/27 01:47:55;;;;;;;7.65;3.00;;;;;;;;;;4802282;29;20500;-81
2023/03/27 01:50:49;;;;;;;6.07;3.20;;;;;;;;;;4807360;29;20050;-81
2023/03/27 01:53:45;;;;;;;6.80;2.70;;;;;;;;;;4807476;29;20496;-81
2023/03/27 01:56:36;;;;;;;6.03;2.63;;;;;;;;;;4806736;29;20625;-82
2023/03/27 01:59:26;;;;;;;5.50;2.80;;;;;;;;;;4807407;29;20043;-80
2023/03/27 02:02:20;;;;;;;5.18;2.80;;;;;;;;;;4806655;29;20462;-83
2023/03/27 02:05:16;;;;;;;6.95;2.78;;;;;;;;;;4806651;29;20043;-83
2023/03/27 02:08:17;;;;;;;5.75;2.75;;;;;;;;;;4806546;29;20059;-84
2023/03/27 02:11:03;;;;;;;6.75;2.10;;;;;;;;;;4805545;29;20055;-81
2023/03/27 02:14:00;;;;;;;3.72;2.10;;;;;;;;;;4805309;29;21740;-84
2023/03/27 02:16:53;;;;;;;5.47;2.00;;;;;;;;;;4792367;29;20042;-83
2023/03/27 02:19:53;;;;;;;4.60;1.83;;;;;;;;;;4805071;29;20262;-81
2023/03/27 02:22:39;;;;;;;4.22;2.15;;;;;;;;;;4805022;29;20046;-83
2023/03/27 02:25:38;;;;;;;2.63;1.75;;;;;;;;;;4804970;29;20053;-83
2023/03/27 02:28:45;;;;;;;3.65;1.58;;;;;;;;;;4805033;29;20051;-82
2023/03/27 02:32:04;;;;;;;3.22;1.90;;;;;;;;;;4810326;29;20050;-84
2023/03/27 02:35:11;;;;;;;2.75;1.60;;;;;;;;;;4810885;29;20050;-84
2023/03/27 02:38:02;;;;;;;3.35;1.40;;;;;;;;;;4798085;29;20476;-82
2023/03/27 02:41:18;;;;;;;2.10;1.40;;;;;;;;;;4804626;29;20042;-84
2023/03/27 02:44:25;;;;;;;4.18;1.95;;;;;;;;;;4803936;29;20059;-85
2023/03/27 02:47:33;;;;;;;3.75;2.00;;;;;;;;;;4801589;29;20063;-82
2023/03/27 02:50:25;;;;;;;6.95;2.42;;;;;;;;;;4804449;29;20050;-82
2023/03/27 02:53:20;;;;;;;3.13;1.70;;;;;;;;;;4803467;29;20397;-84
2023/03/27 02:56:09;;;;;;;2.50;1.60;;;;;;;;;;4798561;29;20046;-83
2023/03/27 02:59:02;;;;;;;3.85;2.20;;;;;;;;;;4803573;29;20046;-83
2023/03/27 03:01:57;;;;;;;6.93;4.40;;;;;;;;;;4804152;29;20042;-84
2023/03/27 03:04:58;;;;;;;2.60;1.55;;;;;;;;;;4803735;29;20042;-84
2023/03/27 03:07:57;;;;;;;4.63;1.65;;;;;;;;;;4793160;29;20054;-84
2023/03/27 03:10:44;;;;;;;4.07;1.80;;;;;;;;;;4804206;29;20050;-83
2023/03/27 03:13:31;;;;;;;4.95;2.10;;;;;;;;;;4823015;29;20046;-83
2023/03/27 03:16:16;;;;;;;4.75;2.55;;;;;;;;;;4791239;29;20050;-82
2023/03/27 03:19:01;;;;;;;3.05;1.80;;;;;;;;;;4803775;29;20050;-81
2023/03/27 03:21:48;;;;;;;3.50;2.13;;;;;;;;;;4803650;29;20055;-80
2023/03/27 03:24:36;;;;;;;2.25;1.70;;;;;;;;;;4802656;29;20058;-81
2023/03/27 03:27:22;;;;;;;4.78;2.42;;;;;;;;;;4803575;29;20058;-83
2023/03/27 03:30:30;;;;;;;3.00;1.67;;;;;;;;;;4817102;29;20046;-81
2023/03/27 03:33:26;;;;;;;4.13;2.00;;;;;;;;;;4811125;29;20042;-83
2023/03/27 03:36:13;;;;;;;4.30;2.80;;;;;;;;;;4797421;29;20062;-82
2023/03/27 03:39:00;;;;;;;3.70;2.20;;;;;;;;;;4804114;29;20527;-82
2023/03/27 03:41:46;;;;;;;4.50;2.60;;;;;;;;;;4797010;29;20055;-82
2023/03/27 03:44:33;;;;;;;3.70;2.13;;;;;;;;;;4810862;29;20047;-82
2023/03/27 03:47:26;;;;;;;3.13;1.80;;;;;;;;;;4798890;29;20055;-82
2023/03/27 03:50:12;;;;;;;5.80;3.08;;;;;;;;;;4802872;29;20051;-81
2023/03/27 03:52:58;;;;;;;8.40;2.78;;;;;;;;;;4822008;29;20055;-82
2023/03/27 03:55:45;;;;;;;6.43;2.28;;;;;;;;;;4803661;29;20042;-83
2023/03/27 03:58:30;;;;;;;3.55;2.20;;;;;;;;;;4803529;29;20055;-83
2023/03/27 04:01:19;;;;;;;4.78;2.33;;;;;;;;;;4797091;29;20504;-84
2023/03/27 04:04:08;;;;;;;6.68;2.28;;;;;;;;;;4803198;29;20042;-84
2023/03/27 04:07:16;;;;;;;4.07;2.00;;;;;;;;;;4802658;29;20047;-83
2023/03/27 04:10:05;;;;;;;4.55;2.15;;;;;;;;;;4797145;29;20043;-81
2023/03/27 04:12:51;;;;;;;3.88;2.05;;;;;;;;;;4803564;29;20035;-83
2023/03/27 04:15:42;;;;;;;2.20;1.55;;;;;;;;;;4796669;29;20424;-81
2023/03/27 04:18:39;;;;;;;4.00;2.13;;;;;;;;;;4803216;29;20043;-83
2023/03/27 04:21:27;;;;;;;6.32;2.42;;;;;;;;;;4796551;29;20080;-83
2023/03/27 04:24:12;;;;;;;3.95;2.00;;;;;;;;;;4802325;29;20556;-82
2023/03/27 04:27:07;;;;;;;2.95;1.67;;;;;;;;;;4805255;29;20047;-80
2023/03/27 04:30:07;;;;;;;3.53;2.20;;;;;;;;;;4804121;29;20047;-83
2023/03/27 04:33:18;;;;;;;3.38;1.92;;;;;;;;;;4808222;29;20034;-83
2023/03/27 04:36:10;;;;;;;3.63;1.88;;;;;;;;;;4811373;29;20046;-81
2023/03/27 04:39:09;;;;;;;29.02;11.40;;;;;;;;;;4804804;29;20042;-83
2023/03/27 04:41:54;;;;;;;3.88;2.40;;;;;;;;;;4798956;29;20054;-82
2023/03/27 04:44:40;;;;;;;4.18;2.55;;;;;;;;;;4804306;29;20050;-81
2023/03/27 04:47:26;;;;;;;4.25;2.45;;;;;;;;;;4797716;29;20054;-83
2023/03/27 04:50:18;;;;;;;9.75;3.55;;;;;;;;;;4823198;29;20051;-81
2023/03/27 04:53:03;;;;;;;5.00;3.15;;;;;;;;;;4797604;29;20059;-82
2023/03/27 04:55:56;;;;;;;3.03;1.80;;;;;;;;;;4798354;29;20051;-81
2023/03/27 04:58:44;;;;;;;4.90;1.73;;;;;;;;;;4803914;29;20047;-82
2023/03/27 05:01:32;;;;;;;3.00;1.30;;;;;;;;;;4811096;29;20066;-83
2023/03/27 05:04:42;;;;;;;3.13;1.70;;;;;;;;;;4807438;29;20051;-83
2023/03/27 05:07:31;;;;;;;3.30;1.85;;;;;;;;;;4807914;29;20046;-81
2023/03/27 05:10:18;;;;;;;6.25;1.92;;;;;;;;;;4807828;29;20405;-83
2023/03/27 05:13:03;;;;;;;9.43;3.88;;;;;;;;;;4807580;29;20054;-83
2023/03/27 05:15:49;;;;;;;5.05;2.40;;;;;;;;;;4808034;29;20046;-81
2023/03/27 05:18:40;;;;;;;11.50;5.40;;;;;;;;;;4816819;29;20401;-82
2023/03/27 05:21:26;;;;;;;3.50;2.17;;;;;;;;;;4812625;29;20050;-81
2023/03/27 05:24:12;;;;;;;5.25;2.63;;;;;;;;;;4825689;29;20051;-82
2023/03/27 05:26:58;;;;;;;14.93;6.32;;;;;;;;;;4810418;29;20051;-82
2023/03/27 05:29:43;;;;;;;8.77;5.13;;;;;;;;;;4811003;29;20051;-81
2023/03/27 05:32:29;;;;;;;92.60;46.75;;;;;;;;;;4811363;29;20046;-82
2023/03/27 05:35:30;;;;;;;36.13;20.35;;;;;;;;;;4811278;29;20058;-81
2023/03/27 05:38:18;;;;;;;15.02;10.55;;;;;;;;;;4807762;29;20059;-81
2023/03/27 05:41:24;;;;;;;28.10;14.05;;;;;;;;;;4801204;29;20054;-80
2023/03/27 05:44:09;;;;;;;10.13;6.13;;;;;;;;;;4807002;29;20051;-81
2023/03/27 05:46:58;;;;;;;6.05;3.47;;;;;;;;;;4804516;29;20480;-80
2023/03/27 05:49:47;;;;;;;8.38;5.63;;;;;;;;;;4808062;29;20042;-80
2023/03/27 05:52:33;;;;;;;6.20;3.58;;;;;;;;;;4807362;29;20054;-81
2023/03/27 05:55:20;;;;;;;7.03;3.47;;;;;;;;;;4807382;29;20076;-81
2023/03/27 05:58:08;;;;;;;3.17;2.40;;;;;;;;;;4806789;29;20047;-80
2023/03/27 06:00:53;;;;;;;7.43;3.55;;;;;;;;;;4805855;29;20058;-80
2023/03/27 06:03:40;;;;;;;9.20;2.53;;;;;;;;;;4804489;29;20050;-80
2023/03/27 06:06:33;;;;;;;5.25;2.97;;;;;;;;;;4804728;29;20500;-81
2023/03/27 06:09:19;;;;;;;6.30;2.45;;;;;;;;;;4810709;29;20484;-80
2023/03/27 06:12:22;;;;;;;10.40;5.97;;;;;;;;;;4804346;29;20055;-81
2023/03/27 06:15:14;;;;;;;6.95;4.40;;;;;;;;;;4815586;29;20043;-80
2023/03/27 06:18:19;;;;;;;11.13;3.05;;;;;;;;;;4817488;29;20058;-82
2023/03/27 06:21:05;;;;;;;3.50;1.95;;;;;;;;;;4804822;29;20405;-81
2023/03/27 06:23:50;;;;;;;11.75;3.47;;;;;;;;;;4804170;29;20046;-81
2023/03/27 06:26:36;;;;;;;4.20;2.30;;;;;;;;;;4823610;29;20046;-82
2023/03/27 06:29:23;;;;;;;6.47;2.90;;;;;;;;;;4805614;29;20050;-82
2023/03/27 06:32:10;;;;;;;4.20;1.98;;;;;;;;;;4803424;29;20413;-83
2023/03/27 06:35:01;;;;;;;3.10;1.80;;;;;;;;;;4804294;29;20058;-81
2023/03/27 06:38:14;;;;;;;2.45;1.98;;;;;;;;;;4803075;29;20054;-86
2023/03/27 06:41:00;;;;;;;4.72;2.70;;;;;;;;;;4810827;29;20058;-82
2023/03/27 06:44:05;;;;;;;2.47;1.85;;;;;;;;;;4803464;29;20504;-82
2023/03/27 06:47:11;;;;;;;2.87;2.57;;;;;;;;;;4801159;29;20059;-81
2023/03/27 06:50:16;;;;;;;3.67;2.55;;;;;;;;;;4800295;29;20749;-81
2023/03/27 06:53:02;;;;;;;4.80;3.20;;;;;;;;;;4804551;29;20055;-81
2023/03/27 06:56:02;;;;;;;6.05;3.35;;;;;;;;;;4797526;29;20050;-82
2023/03/27 06:59:01;;;;;;;2.63;2.13;;;;;;;;;;4802834;29;20054;-83
2023/03/27 07:01:46;;;;;;;2.53;1.70;;;;;;;;;;4806003;29;20046;-82
2023/03/27 07:04:42;;;;;;;1.95;1.65;;;;;;;;;;4802694;29;20050;-83
2023/03/27 07:07:34;;;;;;;3.03;1.75;;;;;;;;;;4797138;29;20054;-82
2023/03/27 07:10:20;;;;;;;3.53;2.00;;;;;;;;;;4803835;29;20421;-84
2023/03/27 07:13:05;;;;;;;1.85;1.70;;;;;;;;;;4802391;29;20479;-83
2023/03/27 07:15:50;;;;;;;4.93;2.95;;;;;;;;;;4813293;29;20054;-83
2023/03/27 07:18:38;;;;;;;11.10;3.20;;;;;;;;;;4803058;29;20054;-84
2023/03/27 07:21:24;;;;;;;7.78;3.90;;;;;;;;;;4797061;29;20129;-83
2023/03/27 07:24:09;;;;;;;5.03;2.40;;;;;;;;;;4804868;29;20059;-82
2023/03/27 07:26:55;;;;;;;13.75;6.28;;;;;;;;;;4815297;29;20049;-81
2023/03/27 07:29:47;;;;;;;9.00;5.90;;;;;;;;;;4803723;29;20051;-81
2023/03/27 07:32:38;;;;;;;8.07;5.22;;;;;;;;;;4803118;29;20051;-82
2023/03/27 07:35:25;;;;;;;22.35;11.35;;;;;;;;;;4809889;29;20050;-82
2023/03/27 07:38:30;;;;;;;8.68;4.60;;;;;;;;;;4800917;29;20042;-81
2023/03/27 07:41:42;;;;;;;9.52;4.10;;;;;;;;;;4817048;29;20042;-82
2023/03/27 07:44:39;;;;;;;8.25;4.55;;;;;;;;;;4802632;29;20051;-81
2023/03/27 07:47:27;;;;;;;5.25;4.10;;;;;;;;;;4797383;29;20059;-79
2023/03/27 07:50:19;;;;;;;11.68;6.10;;;;;;;;;;4805084;29;20050;-79
2023/03/27 07:53:05;;;;;;;6.63;2.92;;;;;;;;;;4802848;29;20050;-81
2023/03/27 07:55:53;;;;;;;5.05;3.00;;;;;;;;;;4803313;29;20058;-83
2023/03/27 07:58:38;;;;;;;6.00;3.50;;;;;;;;;;4810288;29;20058;-81
2023/03/27 08:01:27;;;;;;;3.40;2.10;;;;;;;;;;4805155;29;20054;-83
2023/03/27 08:04:14;;;;;;;7.55;4.15;;;;;;;;;;4805187;29;20493;-82
2023/03/27 08:07:03;;;;;;;5.22;3.17;;;;;;;;;;4803999;29;20050;-79
2023/03/27 08:09:48;;;;;;;6.22;3.17;;;;;;;;;;4792806;29;20051;-81
2023/03/27 08:12:35;;;;;;;15.38;6.88;;;;;;;;;;4804794;29;20050;-82
2023/03/27 08:15:21;;;;;;;6.47;3.10;;;;;;;;;;4804014;29;20058;-81
2023/03/27 08:18:07;;;;;;;4.65;3.00;;;;;;;;;;4804699;29;20042;-80
2023/03/27 08:20:56;;;;;;;13.20;7.88;;;;;;;;;;4804086;29;20047;-80
2023/03/27 08:23:42;;;;;;;11.55;6.90;;;;;;;;;;4803882;29;20051;-82
2023/03/27 08:26:46;;;;;;;77.25;30.08;;;;;;;;;;4812410;29;20501;-80
2023/03/27 08:29:32;;;;;;;495.20;206.80;;;;;;;;;;4805189;29;20501;-81
2023/03/27 08:32:18;;;;;;;402.95;199.60;;;;;;;;;;4804932;29;20477;-80
2023/03/27 08:35:06;;;;;;;448.20;206.50;;;;;;;;;;4804443;29;20050;-81
2023/03/27 08:37:52;;;;;;;133.43;59.78;;;;;;;;;;4805674;29;20059;-80
2023/03/27 08:40:57;;;;;;;112.82;62.63;;;;;;;;;;4807946;29;20051;-79
2023/03/27 08:44:02;;;;;;;44.92;26.27;;;;;;;;;;4826857;29;20051;-80
2023/03/27 08:46:56;;;;;;;21.52;12.10;;;;;;;;;;4805570;29;20365;-81
2023/03/27 08:49:49;;;;;;;14.98;10.55;;;;;;;;;;4807750;29;20051;-78
2023/03/27 08:52:49;;;;;;;21.00;14.40;;;;;;;;;;4808377;29;20054;-80
2023/03/27 08:55:43;;;;;;;8.00;5.30;;;;;;;;;;4807323;29;20050;-81
2023/03/27 08:58:44;;;;;;;10.45;6.43;;;;;;;;;;4805843;29;20054;-79
2023/03/27 09:01:47;;;;;;;9.88;4.38;;;;;;;;;;4819954;29;20501;-79
2023/03/27 09:04:42;;;;;;;;;;;;;;;;;;4806228;29;20047;-78
2023/03/27 09:07:49;;;;;;;15.55;11.90;;;;;;;;;;4805943;29;19929;-81
2023/03/27 09:11:09;;;;;;;11.13;7.22;;;;;;;;;;4805788;29;20489;-80
2023/03/27 09:14:37;;;;;;;15.93;9.90;;;;;;;;;;4805467;29;20054;-80
2023/03/27 09:17:33;;;;;;;165.85;71.20;;;;;;;;;;4818901;29;20058;-80
2023/03/27 09:20:55;;;;;;;48.55;28.38;;;;;;;;;;4824476;29;20050;-82
2023/03/27 09:23:45;;;;;;;12.88;9.68;;;;;;;;;;4805428;29;20409;-80
2023/03/27 09:26:36;;;;;;;19.55;12.00;;;;;;;;;;4813579;29;20046;-81
2023/03/27 09:29:28;;;;;;;22.10;14.65;;;;;;;;;;4813335;29;20054;-79
2023/03/27 09:32:25;;;;;;;23.65;12.73;;;;;;;;;;4805069;29;20050;-79
2023/03/27 09:35:15;;;;;;;46.78;22.23;;;;;;;;;;4807520;29;20058;-80
2023/03/27 09:38:08;;;;;;;19.70;10.25;;;;;;;;;;4805581;29;20051;-80
2023/03/27 09:41:00;;;;;;;14.77;9.52;;;;;;;;;;4805883;29;20063;-79
2023/03/27 09:44:02;;;;;;;14.32;9.57;;;;;;;;;;4824564;29;20397;-80
2023/03/27 09:46:54;;;;;;;15.18;9.10;;;;;;;;;;4803031;29;20054;-78
2023/03/27 09:49:43;;;;;;;13.73;9.05;;;;;;;;;;4817462;29;20050;-78
2023/03/27 09:52:37;;;;;;;11.63;8.38;;;;;;;;;;4823096;29;20069;-77
2023/03/27 09:55:55;;;;;;;7.70;5.07;;;;;;;;;;4812854;29;20043;-78
2023/03/27 09:58:47;;;;;;;11.65;8.45;;;;;;;;;;4823892;29;20047;-78
2023/03/27 10:01:33;;;;;;;6.78;5.03;;;;;;;;;;4805296;29;20050;-79
2023/03/27 10:04:57;;;;;;;7.50;5.75;;;;;;;;;;4807069;29;20062;-78
2023/03/27 10:07:45;;;;;;;15.90;8.40;;;;;;;;;;4805528;29;20046;-77
2023/03/27 10:10:36;;;;;;;8.50;6.53;;;;;;;;;;4811616;29;20054;-79
2023/03/27 10:13:28;;;;;;;8.80;3.55;;;;;;;;;;4816796;29;20058;-78
2023/03/27 10:16:16;;;;;;;8.88;4.72;;;;;;;;;;4804359;29;20058;-79
2023/03/27 10:19:31;;;;;;;14.75;9.20;;;;;;;;;;4809350;29;20046;-80
2023/03/27 10:22:26;;;;;;;7.78;4.10;;;;;;;;;;4824070;29;20678;-77
2023/03/27 10:25:18;;;;;;;7.55;2.58;;;;;;;;;;4824402;29;20046;-77
2023/03/27 10:28:13;;;;;;;4.35;2.33;;;;;;;;;;4812682;29;20043;-79
2023/03/27 10:31:34;;;;;;;6.18;2.72;;;;;;;;;;4811416;29;20046;-81
2023/03/27 10:34:36;;;;;;;10.18;6.72;;;;;;;;;;4805690;29;20058;-79
2023/03/27 10:37:28;;;;;;;28.30;17.83;;;;;;;;;;4813650;29;20043;-79
2023/03/27 10:40:43;;;;;;;34.50;17.75;;;;;;;;;;4813248;29;20441;-79
2023/03/27 10:43:39;;;;;;;22.77;13.35;;;;;;;;;;4806225;29;20050;-80
2023/03/27 10:46:28;;;;;;;25.50;15.80;;;;;;;;;;4804529;29;20047;-80
2023/03/27 10:49:32;;;;;;;17.05;11.07;;;;;;;;;;4805974;29;20698;-79
2023/03/27 10:52:47;;;;;;;36.00;18.80;;;;;;;;;;4806221;29;20046;-78
2023/03/27 10:56:12;;;;;;;5.82;3.50;;;;;;;;;;4822624;29;20412;-78
2023/03/27 10:59:07;;;;;;;4.55;3.15;;;;;;;;;;4813354;29;20059;-79
2023/03/27 11:01:58;;;;;;;34.45;16.73;;;;;;;;;;4805050;29;20054;-78
2023/03/27 11:04:54;;;;;;;21.48;10.82;;;;;;;;;;4804741;29;20047;-79
2023/03/27 11:07:45;;;;;;;8.07;2.63;;;;;;;;;;4828917;29;20421;-80
2023/03/27 11:10:34;;;;;;;11.02;4.18;;;;;;;;;;4806044;29;20046;-79
2023/03/27 11:13:43;;;;;;;9.75;5.10;;;;;;;;;;4813618;29;20404;-79
2023/03/27 11:16:38;;;;;;;4.90;3.25;;;;;;;;;;4805327;29;20054;-79
2023/03/27 11:19:45;;;;;;;16.15;8.25;;;;;;;;;;4830219;29;20049;-79
2023/03/27 11:23:03;;;;;;;13.32;7.35;;;;;;;;;;4835667;29;20417;-79
2023/03/27 11:26:11;;;;;;;10.25;5.95;;;;;;;;;;4822225;29;20046;-78
2023/03/27 11:29:21;;;;;;;41.55;22.30;;;;;;;;;;4804703;29;20046;-80
2023/03/27 11:32:31;;;;;;;19.77;11.30;;;;;;;;;;4823738;29;20058;-79
2023/03/27 11:35:27;;;;;;;17.83;7.40;;;;;;;;;;4813342;29;20042;-79
2023/03/27 11:38:37;;;;;;;33.63;15.50;;;;;;;;;;4834482;29;20050;-79
2023/03/27 11:41:25;;;;;;;132.25;54.13;;;;;;;;;;4804898;29;20501;-80
2023/03/27 11:44:10;;;;;;;117.63;50.58;;;;;;;;;;4822219;29;20054;-79
2023/03/27 11:47:23;;;;;;;41.33;22.60;;;;;;;;;;4829831;29;20046;-80
2023/03/27 11:50:28;;;;;;;53.08;28.15;;;;;;;;;;4805192;29;20540;-80
2023/03/27 11:53:51;;;;;;;60.15;30.90;;;;;;;;;;4821639;29;20058;-80
2023/03/27 11:57:38;;;;;;;6.32;3.85;;;;;;;;;;4808410;29;20098;-79
2023/03/27 12:01:06;;;;;;;8.38;5.38;;;;;;;;;;4812713;29;20408;-80
2023/03/27 12:04:29;;;;;;;5.13;3.50;;;;;;;;;;4811035;29;20404;-80
2023/03/27 12:07:32;;;;;;;5.38;3.47;;;;;;;;;;4821902;29;20054;-81
2023/03/27 12:10:30;;;;;;;24.92;14.65;;;;;;;;;;4804808;29;20420;-81
2023/03/27 12:13:29;;;;;;;;;;;;;;;;;;4804610;29;20042;-77
2023/03/27 12:16:43;;;;;;;3.33;2.13;;;;;;;;;;4814117;29;19920;-81
2023/03/27 12:19:48;;;;;;;4.32;2.42;;;;;;;;;;4804482;29;20054;-80
2023/03/27 12:23:08;;;;;;;4.20;2.58;;;;;;;;;;4804515;29;20042;-81
2023/03/27 12:26:40;;;;;;;3.30;2.00;;;;;;;;;;4833017;29;20038;-79
2023/03/27 12:30:15;;;;;;;3.28;2.20;;;;;;;;;;4821910;29;20050;-80
2023/03/27 12:33:22;;;;;;;6.63;3.53;;;;;;;;;;4821353;29;20050;-81
2023/03/27 12:36:13;;;;;;;10.02;3.22;;;;;;;;;;4805147;29;20496;-81
2023/03/27 12:38:59;;;;;;;6.55;2.97;;;;;;;;;;4833819;29;20050;-79
2023/03/27 12:41:45;;;;;;;3.03;2.40;;;;;;;;;;4804221;29;20501;-78
2023/03/27 12:45:04;;;;;;;3.10;2.10;;;;;;;;;;4811426;29;20047;-78
2023/03/27 12:48:08;;;;;;;3.22;1.98;;;;;;;;;;4828341;29;20051;-82
2023/03/27 12:50:57;;;;;;;3.03;2.50;;;;;;;;;;4816117;29;20054;-79
2023/03/27 12:53:58;;;;;;;11.48;6.30;;;;;;;;;;4807249;29;20050;-80
2023/03/27 12:57:08;;;;;;;14.43;7.15;;;;;;;;;;4821741;29;20404;-80
2023/03/27 12:59:57;;;;;;;8.10;5.57;;;;;;;;;;4802683;29;20058;-78
2023/03/27 13:03:08;;;;;;;11.10;6.80;;;;;;;;;;4833554;29;20051;-79
2023/03/27 13:06:00;;;;;;;6.72;4.05;;;;;;;;;;4821639;29;20408;-81
2023/03/27 13:08:54;;;;;;;3.88;2.28;;;;;;;;;;4820240;29;20088;-81
2023/03/27 13:12:09;;;;;;;3.15;2.33;;;;;;;;;;4821166;29;20042;-79
2023/03/27 13:14:54;;;;;;;5.88;3.25;;;;;;;;;;4794476;29;20054;-80
2023/03/27 13:17:58;;;;;;;4.10;2.97;;;;;;;;;;4811843;29;20050;-80
2023/03/27 13:21:21;;;;;;;6.97;3.30;;;;;;;;;;4804542;29;20054;-78
2023/03/27 13:24:20;;;;;;;4.88;3.35;;;;;;;;;;4816364;29;20058;-78
2023/03/27 13:27:17;;;;;;;5.18;3.78;;;;;;;;;;4807902;29;20489;-76
2023/03/27 13:30:04;;;;;;;3.35;2.45;;;;;;;;;;4807961;29;20046;-76
2023/03/27 13:33:15;;;;;;;6.20;3.90;;;;;;;;;;4807349;29;20617;-76
2023/03/27 13:36:02;;;;;;;4.93;3.40;;;;;;;;;;4806944;29;20305;-77
2023/03/27 13:38:56;;;;;;;5.60;3.67;;;;;;;;;;4826517;29;20050;-77
2023/03/27 13:41:44;;;;;;;4.28;3.13;;;;;;;;;;4814851;29;20058;-77
2023/03/27 13:44:53;;;;;;;4.97;3.67;;;;;;;;;;4818843;29;20046;-77
2023/03/27 13:48:19;;;;;;;5.85;3.80;;;;;;;;;;4818821;29;20054;-77
2023/03/27 13:51:05;;;;;;;6.78;5.03;;;;;;;;;;4758319;29;20400;-77
2023/03/27 13:54:13;;;;;;;4.40;3.47;;;;;;;;;;4814846;29;20046;-76
2023/03/27 13:57:15;;;;;;;2.92;2.22;;;;;;;;;;4829420;29;20041;-77
2023/03/27 14:00:40;;;;;;;5.18;4.07;;;;;;;;;;4822213;29;20050;-78
2023/03/27 14:04:09;;;;;;;12.07;7.80;;;;;;;;;;4806183;29;20265;-78
2023/03/27 14:07:17;;;;;;;9.48;6.72;;;;;;;;;;4806322;29;20051;-78
2023/03/27 14:10:18;;;;;;;13.07;8.00;;;;;;;;;;4823471;29;20051;-79
2023/03/27 14:13:26;;;;;;;18.70;10.80;;;;;;;;;;4823542;29;20050;-77
2023/03/27 14:16:27;;;;;;;13.63;8.90;;;;;;;;;;4806951;29;20058;-75
2023/03/27 14:19:57;;;;;;;12.93;7.97;;;;;;;;;;4836447;29;20495;-78
2023/03/27 14:23:00;;;;;;;10.80;6.20;;;;;;;;;;4823086;29;20043;-77
2023/03/27 14:26:02;;;;;;;13.32;8.52;;;;;;;;;;4822803;29;20055;-77
2023/03/27 14:28:57;;;;;;;16.90;10.48;;;;;;;;;;4830163;29;20049;-77
2023/03/27 14:32:11;;;;;;;12.88;8.38;;;;;;;;;;4806434;29;20055;-77
2023/03/27 14:35:03;;;;;;;8.90;7.15;;;;;;;;;;4824818;29;20084;-77
2023/03/27 14:38:29;;;;;;;12.48;8.55;;;;;;;;;;4833462;29;20042;-77
2023/03/27 14:41:20;;;;;;;12.20;8.88;;;;;;;;;;4818668;29;20046;-76
2023/03/27 14:44:12;;;;;;;14.48;9.00;;;;;;;;;;4806044;29;20042;-79
2023/03/27 14:47:08;;;;;;;13.93;9.02;;;;;;;;;;4802699;29;20051;-77
2023/03/27 14:50:00;;;;;;;10.85;7.40;;;;;;;;;;4806208;29;20045;-76
2023/03/27 14:53:04;;;;;;;12.68;7.40;;;;;;;;;;4804021;29;20055;-76
2023/03/27 14:56:04;;;;;;;3.67;2.75;;;;;;;;;;4802787;29;20050;-78
2023/03/27 14:59:20;;;;;;;7.15;4.35;;;;;;;;;;4809739;29;20054;-76
2023/03/27 15:02:20;;;;;;;8.25;5.22;;;;;;;;;;4811117;29;20039;-78
2023/03/27 15:05:11;;;;;;;13.73;7.88;;;;;;;;;;4803314;29;20408;-77
2023/03/27 15:07:59;;;;;;;11.68;7.07;;;;;;;;;;4816202;29;20054;-78
2023/03/27 15:11:14;;;;;;;14.43;7.55;;;;;;;;;;4817077;29;20042;-78
2023/03/27 15:14:22;;;;;;;11.40;5.20;;;;;;;;;;4802672;29;20046;-77
2023/03/27 15:17:14;;;;;;;12.35;6.45;;;;;;;;;;4821975;29;20405;-78
2023/03/27 15:20:14;;;;;;;9.50;4.35;;;;;;;;;;4803827;29;20054;-77
2023/03/27 15:23:17;;;;;;;7.90;4.72;;;;;;;;;;4821211;29;20046;-76
2023/03/27 15:26:13;;;;;;;12.00;5.47;;;;;;;;;;4802168;29;20051;-78
2023/03/27 15:29:00;;;;;;;6.55;3.15;;;;;;;;;;4803163;29;20046;-78
2023/03/27 15:31:48;;;;;;;8.98;4.55;;;;;;;;;;4810024;29;20047;-78
2023/03/27 15:34:45;;;;;;;3.53;2.38;;;;;;;;;;4809061;29;20058;-76
2023/03/27 15:37:31;;;;;;;4.72;3.40;;;;;;;;;;4811296;29;21834;-76
2023/03/27 15:40:27;;;;;;;6.97;3.90;;;;;;;;;;4810671;29;20047;-76
2023/03/27 15:43:12;;;;;;;4.00;3.20;;;;;;;;;;4810250;29;20050;-77
2023/03/27 15:46:08;;;;;;;10.00;5.35;;;;;;;;;;4802755;29;20058;-77
2023/03/27 15:48:55;;;;;;;7.72;3.90;;;;;;;;;;4791512;29;20489;-76
2023/03/27 15:51:40;;;;;;;4.65;2.35;;;;;;;;;;4793039;29;20417;-77
2023/03/27 15:54:27;;;;;;;6.10;3.30;;;;;;;;;;4792641;29;20413;-78
2023/03/27 15:57:17;;;;;;;2.65;2.10;;;;;;;;;;4791331;29;20059;-77
2023/03/27 16:00:08;;;;;;;6.50;4.70;;;;;;;;;;4792199;29;20063;-76
2023/03/27 16:02:58;;;;;;;12.15;7.85;;;;;;;;;;4797560;29;20059;-79
2023/03/27 16:05:44;;;;;;;13.15;9.18;;;;;;;;;;4792983;29;20051;-76
2023/03/27 16:08:37;;;;;;;3.80;2.58;;;;;;;;;;4797651;29;20047;-77
2023/03/27 16:11:44;;;;;;;10.53;6.07;;;;;;;;;;4793326;29;20058;-77
2023/03/27 16:14:41;;;;;;;20.73;12.75;;;;;;;;;;4792791;29;20266;-80
2023/03/27 16:17:33;;;;;;;26.45;13.05;;;;;;;;;;4791751;29;20051;-78
2023/03/27 16:20:22;;;;;;;11.07;6.28;;;;;;;;;;4792366;29;20051;-77
2023/03/27 16:23:07;;;;;;;14.65;7.25;;;;;;;;;;4792775;29;20063;-78
2023/03/27 16:26:00;;;;;;;4.30;2.78;;;;;;;;;;4791409;29;20051;-77
2023/03/27 16:28:46;;;;;;;10.88;4.35;;;;;;;;;;4792405;29;20063;-76
2023/03/27 16:31:31;;;;;;;6.28;3.92;;;;;;;;;;4791490;29;20405;-76
2023/03/27 16:34:17;;;;;;;7.18;3.58;;;;;;;;;;4790487;29;20047;-77
2023/03/27 16:37:02;;;;;;;5.90;3.05;;;;;;;;;;4783775;29;20066;-78
2023/03/27 16:39:48;;;;;;;6.65;3.92;;;;;;;;;;4796350;29;20055;-77
2023/03/27 16:42:33;;;;;;;8.63;5.85;;;;;;;;;;4791369;29;20051;-78
2023/03/27 16:45:19;;;;;;;5.97;3.30;;;;;;;;;;4789738;29;20047;-78
2023/03/27 16:48:06;;;;;;;5.93;4.05;;;;;;;;;;4805288;29;20054;-78
2023/03/27 16:50:52;;;;;;;3.58;2.47;;;;;;;;;;4825279;29;20049;-77
2023/03/27 16:53:39;;;;;;;4.63;3.00;;;;;;;;;;4821631;29;20051;-77
2023/03/27 16:56:24;;;;;;;2.58;2.20;;;;;;;;;;4799645;29;20058;-78
2023/03/27 16:59:10;;;;;;;4.57;2.97;;;;;;;;;;4808869;29;20054;-78
2023/03/27 17:01:55;;;;;;;6.28;2.28;;;;;;;;;;4829527;29;20046;-79
2023/03/27 17:04:42;;;;;;;2.83;2.03;;;;;;;;;;4823547;29;20051;-79
2023/03/27 17:07:27;;;;;;;3.58;2.42;;;;;;;;;;4798605;29;20047;-76
2023/03/27 17:10:13;;;;;;;2.28;1.70;;;;;;;;;;4818434;29;20055;-77
2023/03/27 17:12:59;;;;;;;1.35;1.25;;;;;;;;;;4823284;29;20051;-76
2023/03/27 17:15:49;;;;;;;1.73;1.55;;;;;;;;;;4831327;29;20050;-77
2023/03/27 17:18:35;;;;;;;2.00;1.52;;;;;;;;;;4830397;29;20057;-77
2023/03/27 17:21:21;;;;;;;2.92;2.05;;;;;;;;;;4817791;29;20416;-77
2023/03/27 17:24:08;;;;;;;6.38;2.97;;;;;;;;;;4819090;29;20091;-76